Flight Track Log - Related Links

Times and Time Zones

All times are in EDT time to prevent confusion due to time zone crossing. See the CTL62 flight status page for this flight to view local times or setup timezone preferences in your user account.

Time Position Orientation Groundspeed Altitude Reporting Facility
EDT Latitude Longitude Course Direction KTS MPH feet Rate Location/Type
Wed 11:29:40 PM 40.1086 -83.0750 326° Northwest 175 201 2,100  Level Indianapolis Center
Wed 11:30:52 PM 40.1539 -83.1156 326° Northwest 152 175 3,100 766 Climbing Indianapolis Center
Wed 11:31:14 PM 40.1664 -83.1153 North 163 188 3,300 787 Climbing Indianapolis Center
Wed 11:31:53 PM 40.1947 -83.1314 337° Northwest 157 181 3,900 787 Climbing Indianapolis Center
Wed 11:32:15 PM 40.2056 -83.1369 339° North 154 177 4,100 590 Climbing Indianapolis Center
Wed 11:32:54 PM 40.2325 -83.1603 327° Northwest 162 186 4,500 590 Climbing Indianapolis Center
Wed 11:33:16 PM 40.2422 -83.1706 321° Northwest 157 181 4,700 723 Climbing Indianapolis Center
Wed 11:34:17 PM 40.2664 -83.2200 303° West 164 189 5,500 787 Climbing Indianapolis Center
Wed 11:35:18 PM 40.2869 -83.2694 299° West 158 182 6,300 689 Climbing Indianapolis Center
Wed 11:36:19 PM 40.3078 -83.3197 299° West 156 180 6,900 590 Climbing Indianapolis Center
Wed 11:37:20 PM 40.3303 -83.3719 299° West 161 185 7,500 590 Climbing Indianapolis Center
Wed 11:38:21 PM 40.3522 -83.4247 299° West 163 188 8,100 295 Climbing Indianapolis Center
Wed 11:39:22 PM 40.3764 -83.4811 299° West 172 198 8,100  Level Indianapolis Center
Wed 11:40:23 PM 40.4033 -83.5428 300° West 188 216 8,100  Level Indianapolis Center
Wed 11:41:24 PM 40.4297 -83.6042 299° West 192 221 8,100  Level Indianapolis Center
Wed 11:42:25 PM 40.4564 -83.6658 300° West 192 221 8,100 -49 Level Indianapolis Center
Wed 11:43:26 PM 40.4869 -83.7392 299° West 195 224 8,000 -49 Descending Indianapolis Center
Wed 11:44:27 PM 40.5172 -83.7992 304° West 195 224 8,000  Level Indianapolis Center
Wed 11:45:28 PM 40.5419 -83.8611 298° West 192 221 8,000 50 Level Indianapolis Center
Wed 11:46:28 PM 40.5689 -83.9228 300° West 193 222 8,100 99 Climbing Indianapolis Center
Wed 11:47:29 PM 40.5956 -83.9822 301° West 189 217 8,200  Climbing Indianapolis Center
Wed 11:48:30 PM 40.6211 -84.0444 298° West 190 219 8,100 -49 Descending Indianapolis Center
Wed 11:49:31 PM 40.6481 -84.1061 300° West 195 224 8,100  Level Indianapolis Center
Wed 11:50:32 PM 40.6742 -84.1678 299° West 190 219 8,100 -49 Level Indianapolis Center
Wed 11:51:33 PM 40.6986 -84.2311 297° West 195 224 8,000  Descending Indianapolis Center
Wed 11:52:34 PM 40.7253 -84.2936 299° West 194 223 8,100 50 Climbing Indianapolis Center
Wed 11:53:34 PM 40.7500 -84.3558 298° West 191 220 8,100  Level Indianapolis Center
Wed 11:54:35 PM 40.7742 -84.4183 297° West 192 221 8,100  Level Indianapolis Center
Wed 11:55:36 PM 40.8008 -84.4797 300° West 192 221 8,100 -46 Level Indianapolis Center
Wed 11:56:45 PM 40.8261 -84.5467 297° West 190 219 8,000 -92 Descending Chicago Center
Wed 11:57:46 PM 40.8514 -84.6083 298° West 191 220 7,900  Descending Chicago Center
Wed 11:58:46 PM 40.8767 -84.6692 299° West 190 219 8,000 50 Climbing Chicago Center
Wed 11:59:47 PM 40.9014 -84.7300 298° West 188 216 8,000 49 Level Chicago Center
Thu 12:00:48 AM 40.9258 -84.7922 297° West 191 220 8,100 50 Climbing Chicago Center
Thu 12:01:48 AM 40.9503 -84.8536 298° West 190 219 8,100  Level Chicago Center
Thu 12:02:49 AM 40.9744 -84.9156 297° West 188 216 8,100  Level Chicago Center
Thu 12:03:50 AM 40.9997 -84.9764 299° West 189 217 8,100  Level Chicago Center
Thu 12:04:50 AM 41.0239 -85.0369 298° West 188 216 8,100 -50 Level Chicago Center
Thu 12:05:51 AM 41.0506 -85.1006 299° West 193 222 8,000 -50 Descending Chicago Center
Thu 12:06:51 AM 41.0753 -85.1631 298° West 192 221 8,000  Level Chicago Center
Thu 12:07:52 AM 41.1000 -85.2250 298° West 190 219 8,000  Level Chicago Center
Thu 12:08:52 AM 41.1242 -85.2878 297° West 191 220 8,000  Level Chicago Center
Thu 12:09:53 AM 41.1533 -85.3642 297° West 193 222 8,000  Level Chicago Center
Thu 12:10:53 AM 41.1781 -85.4267 298° West 192 221 8,000  Level Chicago Center
Thu 12:11:54 AM 41.2039 -85.4875 299° West 189 217 8,000  Level Chicago Center
Thu 12:12:54 AM 41.2275 -85.5497 297° West 188 216 8,000  Level Chicago Center
Thu 12:13:55 AM 41.2519 -85.6119 298° West 188 216 8,000  Level Chicago Center
Thu 12:14:55 AM 41.2781 -85.6736 299° West 191 220 8,000 -50 Level Chicago Center
Thu 12:15:56 AM 41.3019 -85.7353 297° West 189 217 7,900  Descending Chicago Center
Thu 12:16:56 AM 41.3267 -85.7958 299° West 186 214 8,000 50 Climbing Chicago Center
Thu 12:17:57 AM 41.3528 -85.8564 300° West 189 217 8,000  Level Chicago Center
Thu 12:18:57 AM 41.3742 -85.9181 295° West 185 213 8,000  Level Chicago Center
Thu 12:19:58 AM 41.3958 -85.9800 295° West 185 213 8,000  Level Chicago Center
Thu 12:20:58 AM 41.4197 -86.0417 297° West 187 215 8,000  Level Chicago Center
Thu 12:21:58 AM 41.4442 -86.1036 298° West 189 217 8,000  Level Chicago Center
Thu 12:22:59 AM 41.4681 -86.1639 298° West 185 213 8,000  Level Chicago Center
Thu 12:24:16 AM 41.4972 -86.2383 298° West 187 215 8,000  Level Chicago Center
Thu 12:25:16 AM 41.5225 -86.2989 299° West 187 215 8,000  Level Chicago Center
Thu 12:26:16 AM 41.5472 -86.3589 299° West 185 213 8,000  Level Chicago Center
Thu 12:27:17 AM 41.5703 -86.4211 296° West 185 213 8,000  Level Chicago Center
Thu 12:28:17 AM 41.5925 -86.4842 295° West 185 213 8,000 50 Level Chicago Center
Thu 12:29:17 AM 41.6169 -86.5453 298° West 186 214 8,100  Climbing Chicago Center
Thu 12:30:18 AM 41.6386 -86.6061 295° West 184 212 8,000 -50 Descending Chicago Center
Thu 12:31:18 AM 41.6592 -86.6667 294° West 180 207 8,000  Level Chicago Center
Thu 12:32:18 AM 41.6867 -86.7358 298° West 183 211 8,000  Level Chicago Center
Thu 12:33:19 AM 41.7075 -86.7953 295° West 180 207 8,000  Level Chicago Center
Thu 12:34:19 AM 41.7267 -86.8553 293° West 177 204 8,000  Level Chicago Center
Thu 12:35:19 AM 41.7489 -86.9147 297° West 179 206 8,000  Level Chicago Center
Thu 12:36:20 AM 41.7692 -86.9736 295° West 176 203 8,000  Level Chicago Center
Thu 12:37:20 AM 41.7911 -87.0328 296° West 177 204 8,000  Level Chicago Center
Thu 12:38:20 AM 41.8114 -87.0908 295° West 175 201 8,000  Level Chicago Center
Thu 12:39:21 AM 41.8322 -87.1497 295° West 175 201 8,000  Level Chicago Center
Thu 12:40:21 AM 41.8511 -87.2081 294° West 172 198 8,000 -250 Level Chicago Center
Thu 12:41:21 AM 41.8725 -87.2692 295° West 180 207 7,500 -446 Descending Chicago Center
Thu 12:42:22 AM 41.8956 -87.3336 296° West 192 221 7,100 -366 Descending Chicago Center
Thu 12:43:32 AM 41.9333 -87.4167 301° West 190 219 6,700 -366 Descending Chicago TRACON
Thu 12:44:33 AM 41.9500 -87.4833 289° West 194 223 6,300 -347 Descending Chicago TRACON
Thu 12:45:33 AM 41.9833 -87.5500 304° West 193 222 6,000 -400 Descending Chicago TRACON
Thu 12:46:33 AM 42.0000 -87.6167 289° West 196 226 5,500 -818 Descending Chicago TRACON
Thu 12:47:45 AM 42.0333 -87.6833 304° West 211 243 4,200 -900 Descending Chicago TRACON
Thu 12:48:33 AM 42.0500 -87.7500 289° West 203 234 3,700 -625 Descending Chicago TRACON
Thu 12:51:00 AM 42.0864 -87.8455 289° West  Level FlightAware Approximate
Thu 12:58:00 AM 42.1000 -87.9000 289° West  Level FlightAware Approximate
Thu 12:59:00 AM 42.1143 -87.9015 289° West  Level Estimated
Thu 01:00:00 AM 42.1143 -87.9015 289° West  Level Estimated

Login

Don't have an account? Register now (free) for customized features, flight alerts, and more!